Meacham, OR (97859)

6:26 AM PDT on September 05, 2015 (GMT -0700)
Meacham | | Change Station
CLOSE
Current Station
Airport
Location: Meacham,
Elevation: 3720 ft
Nearby Weather Stations

Elev 3720 ft 45.51 °N, 118.42 °W | Updated 16 minutes ago

Rain
Rain
41 °F
Feels Like 41 °F
N
0
Wind Variable Wind from North

Today
High -- | Low -- °F
--% Chance of Precip.
Yesterday
High -- | Low -- °F
Precip. -- in
6:19 AM 7:24 PM
Waning Gibbous, 48% visible
Pressure 29.93 in
Visibility 7.0 miles
Clouds Scattered Clouds 700 ft
Overcast 1400 ft
Dew Point 39 °F
Humidity 93%
Rainfall 0.47 in
Snow Depth Not available.
UV 0 out of 12
Pollen .70 out of 12
Air Quality Not available.
Flu Activity Not available.
SPECI KMEH 051310Z AUTO 00000KT 7SM RA SCT007 OVC014 05/04 A2993 RMK AO2 P0003 T00500039
Pressure 29.93 in
Visibility 7.0 miles
Clouds Scattered Clouds 700 ft
Overcast 1400 ft
Dew Point 39 °F
Humidity 93%
Rainfall 0.47 in
Snow Depth Not available.
UV 0 out of 12
Pollen .70 out of 12
Air Quality Not available.
Flu Activity Not available.
SPECI KMEH 051310Z AUTO 00000KT 7SM RA SCT007 OVC014 05/04 A2993 RMK AO2 P0003 T00500039

10-Day Weather Forecast

×

Almanac

Astronomy

Sep. 05, 2015 Rise Set
Actual Time
Civil Twilight
Nautical Twilight
Astronomical Twilight
Moon
Length of Visible Light
Length of Day
Tomorrow will be .
, % of the Moon is Illuminated

Today's Extremes

State Highs State Lows

Community

WunderPhotos

Upload Photos

1,852,454 photos uploaded!

WunderBlogs® & News

Nearby

Air Quality

  Air Quality AQ Index Pollutant
Not available.

Snow Depth

Station Depth Elevation

Earthquake Activity

City Distance Mag. Time & Date
Minimum magnitude displayed is 2.5.

Coastal Water Temperatures

Place Temperature

Stations

Nearby Weather Stations

Station Location Temp. Windchill Dew Point Humidity Wind Precip. Elev Updated Type